Glenshire Elementary, Truckee, California Weather observations

Data are for observation ending at time listed.
 Day   Time    Ave.   Ave.  Ave.  Vector   Max.   Stn.    Total    Solar   Ave.   Snow 
  of    of     Air    Rel.  Wind   Wind    Wind   Baro.  Precip.   Rad.    Soil   Depth
Year   Day     Temp.  Hum.  Speed  Dir.    Gust   Pres.                    Temp.       
2014   (PST)    F      %     mph   deg.    mph     mb.     in.     W/m2     F      in. 
---------------------------------------------------------------------------------------  
 210   21:30   65.0    43    0.4    97      0.4   826.8    0.00       0    65.7   999.0
 210   21:40   64.0    45    0.4   101      0.4   826.8    0.00       0    65.7   999.0
 210   21:50   63.2    46    0.4   267      0.4   826.7    0.00       0    65.7   999.0
 210   22:00   62.9    46    0.4   264      0.4   826.6    0.00       0    65.7   999.0
 210   22:10   62.2    47    0.4   264      0.4   826.5    0.00       0    65.7   999.0
 210   22:20   61.4    48    0.4   254      0.4   826.4    0.00       0    65.7   999.0
 210   22:30   60.3    51    0.4   241      0.4   826.3    0.00       0    65.7   999.0
 210   22:40   58.5    55    0.4    73      0.4   826.4    0.00       0    65.7   999.0
 210   22:50   58.0    56    0.4    66      0.4   826.5    0.00       0    65.7   999.0
 210   23:00   58.8    55    0.4    62      0.4   826.4    0.00       0    65.7   999.0
 210   23:10   58.8    54    0.4    62      0.4   826.5    0.00       0    65.7   999.0
 210   23:20   58.4    56    0.4    62      0.4   826.4    0.00       0    65.7   999.0
 210   23:30   57.7    57    0.4    63      0.4   826.4    0.00       0    65.7   999.0
 210   23:40   56.8    60    0.4   126      0.4   826.5    0.00       0    65.7   999.0
 210   23:50   56.6    60    0.4   226      0.4   826.5    0.00       0    65.7   999.0
 211    0:00   56.6    59    0.4   223      0.4   826.5    0.00       0    65.7   999.0
 211    0:10   56.3    59    0.4   276      0.4   826.4    0.00       0    65.7   999.0
 211    0:20   55.9    57    0.4   290      0.4   826.5    0.00       0    65.7   999.0
 211    0:30   55.1    60    0.4   290      0.4   826.5    0.00       0    65.7   999.0
 211    0:40   54.1    63    0.4   107      0.4   826.4    0.00       0    65.7   999.0
 211    0:50   54.0    61    0.4   110      0.4   826.3    0.00       0    65.7   999.0
 211    1:00   54.3    60    0.4   110      0.4   826.4    0.00       0    65.7   999.0
 211    1:10   54.1    61    0.4   110      0.4   826.3    0.00       0    65.7   999.0
 211    1:20   54.0    63    0.4   110      0.4   826.4    0.00       0    65.7   999.0
 211    1:30   53.3    66    0.4   110      0.4   826.5    0.00       0    65.7   999.0
 211    1:40   53.2    66    0.4   124      0.4   826.4    0.00       0    65.7   999.0
 211    1:50   53.5    65    0.4   239      0.4   826.3    0.00       0    65.7   999.0
 211    2:00   53.4    66    0.4   195      0.4   826.5    0.00       0    65.7   999.0
 211    2:10   53.2    67    0.4   257      0.4   826.5    0.00       0    65.7   999.0
 211    2:20   52.8    67    0.4   257      0.4   826.5    0.00       0    65.7   999.0
 211    2:30   53.3    64    0.4   257      0.4   826.4    0.00       0    65.7   999.0
 211    2:40   52.7    68    0.4    61      0.4   826.3    0.00       0    65.7   999.0
 211    2:50   52.3    68    0.4    66      0.4   826.3    0.00       0    65.7   999.0
 211    3:00   51.9    69    0.5    68      2.9   826.2    0.00       0    65.7   999.0
 211    3:10   51.7    68    0.4    61      0.4   826.3    0.00       0    65.7   999.0
 211    3:20   51.7    68    0.4    64      0.4   826.2    0.00       0    65.7   999.0
 211    3:30   51.4    69    0.4    64      0.4   826.3    0.00       0    65.7   999.0
 211    3:40   50.9    70    0.4    64      0.4   826.2    0.00       0    65.7   999.0
 211    3:50   51.0    70    0.4    64      0.4   826.3    0.00       0    65.7   999.0
 211    4:00   51.0    71    0.4   302      0.4   826.2    0.00       0    65.7   999.0
 211    4:10   50.7    71    0.4   304      0.4   826.2    0.00       0    65.7   999.0
 211    4:20   50.3    71    0.4   304      0.4   826.2    0.00       0    65.7   999.0
 211    4:30   49.8    73    0.4   277      0.4   826.2    0.00       0    65.7   999.0
 211    4:40   49.6    73    0.4   264      0.4   826.2    0.00       0    65.7   999.0
 211    4:50   49.4    73    0.4   263      0.4   826.3    0.00       0    65.7   999.0
 211    5:00   49.2    73    0.4   262      0.4   826.3    0.00       0    65.7   999.0
 211    5:10   48.7    74    0.4   262      0.4   826.3    0.00       0    65.7   999.0
 211    5:20   48.3    75    0.4   262      0.4   826.4    0.00       0    65.7   999.0
 211    5:30   48.8    74    0.4   244      0.4   826.5    0.00       0    65.7   999.0
 211    5:40   49.4    74    0.4   230      0.4   826.6    0.00      47    65.7   999.0
 211    5:50   51.2    70    0.4   191      0.4   826.7    0.00      74    65.8   999.0
 211    6:00   52.3    69    0.4   176      0.4   826.6    0.00     129    65.8   999.0
 211    6:10   54.0    66    0.4   184      0.4   826.7    0.00     129    65.8   999.0
 211    6:20   55.0    64    0.4   224      0.4   826.7    0.00     163    65.8   999.0
 211    6:30   56.2    64    0.4    23      0.4   826.8    0.00     181    65.8   999.0
 211    6:40   55.5    66    0.4    80      0.4   826.8    0.00      86    65.8   999.0
 211    6:50   55.7    66    0.4    80      0.4   826.8    0.00     230    65.8   999.0
 211    7:00   58.4    60    0.4   238      0.4   826.8    0.00     280    65.8   999.0
 211    7:10   60.0    59    0.4    58      0.4   826.8    0.00     240    65.8   999.0
 211    7:20   58.3    61    0.4    73      0.4   826.8    0.00     249    65.8   999.0
 211    7:30   59.7    57    0.4    87      0.4   826.7    0.00     382    65.8   999.0
 211    7:40   62.1    52    0.4    83      0.4   826.7    0.00     386    65.7   999.0
 211    7:50   63.7    50    0.4    89      0.4   826.7    0.00     422    65.7   999.0
 211    8:00   65.1    48    0.5   176      2.1   826.6    0.00     450    65.7   999.0
 211    8:10   67.5    44    0.4   262      1.2   826.6    0.00     494    65.7   999.0
 211    8:20   68.2    43    0.5   134      2.1   826.5    0.00     478    65.7   999.0
 211    8:30   68.5    42    0.9    74      3.8   826.5    0.00     465    65.8   999.0
 211    8:40   69.5    41    0.9    75      4.6   826.4    0.00     541    65.8   999.0
 211    8:50   70.7    37    1.0    69      5.4   826.5    0.00     547    65.8   999.0
 211    9:00   71.6    36    0.8    74      4.6   826.5    0.00     592    65.8   999.0
 211    9:10   72.7    35    0.8    98      3.8   826.4    0.00     611    65.8   999.0
 211    9:20   74.7    32    1.7   230      4.6   826.3    0.00     557    65.8   999.0
 211    9:30   75.3    32    0.7   237      3.8   826.2    0.00     665    65.8   999.0
 211    9:40   76.4    30    2.0    61      5.4   826.2    0.00     600    65.8   999.0
 211    9:50   77.6    30    1.6    61      8.0   826.1    0.00     700    65.8   999.0
 211   10:00   77.7    30    1.9    96      8.8   826.1    0.00     712    65.8   999.0
 211   10:10   77.5    30    3.3    76      8.0   826.1    0.00     622    65.8   999.0
 211   10:20   78.7    29    3.7    94     10.5   826.0    0.00     729    65.8   999.0
 211   10:30   79.6    28    3.0    89      8.0   825.9    0.00     739    65.8   999.0
 211   10:40   80.4    27    1.7    78      8.0   825.7    0.00     794    65.8   999.0
 211   10:50   81.4    24    0.4   118      0.4   825.6    0.00     802    65.8   999.0
 211   11:00   82.1    22    2.9    91      9.6   825.5    0.00     851    65.8   999.0
 211   11:10   80.9    21    3.5    83      9.6   825.5    0.00     269    65.8   999.0
 211   11:20   79.4    23    2.9   210      8.0   825.6    0.00     198    65.8   999.0
 211   11:30   78.7    25    2.4   233      7.1   825.7    0.00     194    65.8   999.0
 211   11:40   77.9    26    2.8   237      8.8   825.8    0.00     174    65.8   999.0
 211   11:50   76.7    27    4.0   232     10.5   825.6    0.00     191    65.8   999.0
 211   12:00   76.8    26    0.7   233      4.6   825.5    0.00     252    65.8   999.0
 211   12:10   77.2    26    0.9   238      6.3   825.6    0.00     235    65.8   999.0
 211   12:20   76.8    27    1.7   218      7.1   825.7    0.00     193    65.8   999.0
 211   12:30   77.0    28    1.2    96      5.4   825.8    0.00     136    65.8   999.0
 211   12:40   74.9    30    5.1   118     16.3   826.2    0.00     131    65.8   999.0
 211   12:50   73.5    31    5.0   112     13.8   826.5    0.00     357    65.8   999.0
 211   13:00   73.3    32    7.4   122     15.5   826.6    0.00     654    65.8   999.0
 211   13:10   73.3    32    5.5   111     14.7   826.7    0.00     541    65.8   999.0
 211   13:20   74.2    32    3.9   160     14.7   826.7    0.00     729    65.8   999.0
 211   13:30   73.1    34    6.0   135     15.5   826.7    0.00     750    65.8   999.0
 211   13:40   72.6    34    6.5   170     12.1   826.8    0.00     416    65.8   999.0
 211   13:50   71.7    34    3.9   176      9.6   826.8    0.00     357    65.8   999.0
 211   14:00   71.5    34    4.1   111     10.5   827.0    0.00     184    65.8   999.0
 211   14:10   68.4    43    4.5    73     11.3   827.3    0.00     127    65.8   999.0
 211   14:20   65.8    50    1.9    61      8.0   827.2    0.00     129    65.8   999.0
 211   14:30   66.4    48    0.7    86      3.8   827.2    0.00     129    65.8   999.0
 211   14:40   67.5    47    1.5    77      5.4   827.3    0.00     109    65.8   999.0
 211   14:50   66.5    48    1.9    72      4.6   827.5    0.00      64    65.8   999.0
 211   15:00   65.6    54    0.7    68      2.9   827.6    0.00      64    65.8   999.0
 211   15:10   64.1    66    0.4    61      0.4   827.7    0.00      64    65.8   999.0
 211   15:20   61.6    75    0.5    64      2.1   827.9    0.00      64    65.8   999.0
 211   15:30   62.1    72    0.4   162      0.4   827.9    0.00      64    65.8   999.0
 211   15:40   62.2    70    1.1   196      3.8   828.0    0.00      64    65.8   999.0
 211   15:50   61.8    71    1.8   220      8.0   827.8    0.00      87    65.8   999.0
 211   16:00   62.0    70    2.1   228      6.3   827.6    0.00     155    65.8   999.0
 211   16:10   61.9    69    3.6   243      8.8   827.4    0.00     106    65.8   999.0
 211   16:20   61.9    73    1.5    71      5.4   827.3    0.00      64    65.8   999.0
 211   16:30   61.3    74    1.2    74      4.6   827.2    0.00      53    65.8   999.0
 211   16:40   61.1    76    0.7    72      2.9   827.0    0.00      41    65.8   999.0
 211   16:50   61.2    75    0.4    64      0.4   827.0    0.00      62    65.8   999.0
 211   17:00   61.3    76    1.4   101      4.6   826.9    0.00      64    65.8   999.0
 211   17:10   61.5    74    0.6    72      4.6   826.9    0.00      92    65.8   999.0
 211   17:20   62.0    73    2.1    72      6.3   826.8    0.00     204    65.8   999.0
 211   17:30   63.0    72    1.0   124      5.4   826.8    0.00     211    65.8   999.0
 211   17:40   63.9    70    0.4   154      0.4   826.7    0.00     242    65.9   999.0
 211   17:50   63.0    72    0.4   184      0.4   826.8    0.00     186    65.8   999.0
 211   18:00   62.7    71    0.4   207      0.4   826.8    0.00     129    65.8   999.0
 211   18:10   63.0    70    0.4   204      0.4   826.7    0.00     154    65.8   999.0
 211   18:20   63.6    68    0.9   195      3.8   826.6    0.00      93    65.8   999.0
 211   18:30   63.3    70    0.4   178      0.4   826.6    0.00      80    65.8   999.0
 211   18:40   62.9    69    2.3   207      4.6   826.6    0.00      64    65.8   999.0
 211   18:50   62.9    68    1.2   222      4.6   826.6    0.00      64    65.8   999.0
 211   19:00   62.9    68    0.4   191      0.4   826.5    0.00      44    65.8   999.0
 211   19:10   62.5    69    0.4   215      0.4   826.5    0.00       0    65.8   999.0
 211   19:20   62.0    71    0.4   251      0.4   826.4    0.00       0    65.8   999.0
 211   19:30   61.4    71    0.4   260      0.4   826.5    0.00       0    65.8   999.0
 211   19:40   61.2    71    0.4   217      0.4   826.6    0.00       0    65.8   999.0
 211   19:50   60.3    74    0.4   156      0.4   826.6    0.00       0    65.8   999.0
 211   20:00   59.7    75    0.4   119      0.4   826.6    0.00       0    65.8   999.0
 211   20:10   59.6    75    0.4   119      0.4   826.8    0.00       0    65.8   999.0
 211   20:20   58.7    78    0.4    97      0.4   826.9    0.00       0    65.8   999.0
 211   20:30   58.4    78    0.4    73      0.4   826.9    0.00       0    65.8   999.0
 211   20:40   58.6    77    0.4    73      0.4   826.8    0.00       0    65.8   999.0
 211   20:50   58.9    77    0.4    73      0.4   826.8    0.00       0    65.8   999.0
 211   21:00   58.4    78    0.4    73      0.4   826.8    0.00       0    65.8   999.0
 211   21:10   57.7    80    0.4    73      0.4   826.7    0.00       0    65.8   999.0
 211   21:20   56.7    82    0.4    70      0.4   826.6    0.00       0    65.8   999.0

Return to Glenshire Elementary graphs page.


Western Regional Climate Center,wrcc@dri.edu